sensor_id;sensor_type;location;lat;lon;timestamp;temperature;humidity
62339;DHT22;48368;53.406;6.214;2023-07-30T00:02:04;16.30;99.90
62339;DHT22;48368;53.406;6.214;2023-07-30T00:04:30;16.30;99.90
62339;DHT22;48368;53.406;6.214;2023-07-30T00:06:55;16.30;99.90
62339;DHT22;48368;53.406;6.214;2023-07-30T00:09:21;16.20;99.90
62339;DHT22;48368;53.406;6.214;2023-07-30T00:11:47;16.20;99.90
62339;DHT22;48368;53.406;6.214;2023-07-30T00:14:13;16.30;99.90
62339;DHT22;48368;53.406;6.214;2023-07-30T00:16:38;16.30;99.90
62339;DHT22;48368;53.406;6.214;2023-07-30T00:19:04;16.30;99.90
62339;DHT22;48368;53.406;6.214;2023-07-30T00:21:29;16.20;99.90
62339;DHT22;48368;53.406;6.214;2023-07-30T00:23:55;16.30;99.90
62339;DHT22;48368;53.406;6.214;2023-07-30T00:26:21;16.20;99.90
62339;DHT22;48368;53.406;6.214;2023-07-30T00:28:46;16.20;99.90
62339;DHT22;48368;53.406;6.214;2023-07-30T00:31:12;16.30;99.90
62339;DHT22;48368;53.406;6.214;2023-07-30T00:33:37;16.20;99.90
62339;DHT22;48368;53.406;6.214;2023-07-30T00:36:03;16.20;99.90
62339;DHT22;48368;53.406;6.214;2023-07-30T00:38:29;16.20;99.90
62339;DHT22;48368;53.406;6.214;2023-07-30T00:40:54;16.20;99.90
62339;DHT22;48368;53.406;6.214;2023-07-30T00:43:21;16.20;99.90
62339;DHT22;48368;53.406;6.214;2023-07-30T00:45:46;16.20;99.90
62339;DHT22;48368;53.406;6.214;2023-07-30T00:48:13;16.30;99.90
62339;DHT22;48368;53.406;6.214;2023-07-30T00:50:40;16.30;99.90
62339;DHT22;48368;53.406;6.214;2023-07-30T00:53:08;16.30;99.90
62339;DHT22;48368;53.406;6.214;2023-07-30T00:55:34;16.20;99.90
62339;DHT22;48368;53.406;6.214;2023-07-30T00:58:01;16.30;99.90
62339;DHT22;48368;53.406;6.214;2023-07-30T01:00:27;16.20;99.90
62339;DHT22;48368;53.406;6.214;2023-07-30T01:02:55;16.20;99.90
62339;DHT22;48368;53.406;6.214;2023-07-30T01:05:21;16.20;99.90
62339;DHT22;48368;53.406;6.214;2023-07-30T01:07:46;16.20;99.90
62339;DHT22;48368;53.406;6.214;2023-07-30T01:10:12;16.20;99.90
62339;DHT22;48368;53.406;6.214;2023-07-30T01:12:40;16.20;99.90
62339;DHT22;48368;53.406;6.214;2023-07-30T01:15:09;16.20;99.90
62339;DHT22;48368;53.406;6.214;2023-07-30T01:17:36;16.20;99.90
62339;DHT22;48368;53.406;6.214;2023-07-30T01:20:02;16.20;99.90
62339;DHT22;48368;53.406;6.214;2023-07-30T01:22:31;16.20;99.90
62339;DHT22;48368;53.406;6.214;2023-07-30T01:24:56;16.20;99.90
62339;DHT22;48368;53.406;6.214;2023-07-30T01:27:36;16.30;99.90
62339;DHT22;48368;53.406;6.214;2023-07-30T01:30:18;16.20;99.90
62339;DHT22;48368;53.406;6.214;2023-07-30T01:32:49;16.20;99.90
62339;DHT22;48368;53.406;6.214;2023-07-30T01:35:16;16.30;99.90
62339;DHT22;48368;53.406;6.214;2023-07-30T01:37:44;16.20;99.90
62339;DHT22;48368;53.406;6.214;2023-07-30T01:40:13;16.30;99.90
62339;DHT22;48368;53.406;6.214;2023-07-30T01:42:38;16.30;99.90
62339;DHT22;48368;53.406;6.214;2023-07-30T01:45:05;16.30;99.90
62339;DHT22;48368;53.406;6.214;2023-07-30T01:47:37;16.30;99.90
62339;DHT22;48368;53.406;6.214;2023-07-30T01:50:06;16.40;99.90
62339;DHT22;48368;53.406;6.214;2023-07-30T01:52:35;16.40;99.90
62339;DHT22;48368;53.406;6.214;2023-07-30T01:55:00;16.40;99.90
62339;DHT22;48368;53.406;6.214;2023-07-30T01:57:27;16.40;99.90
62339;DHT22;48368;53.406;6.214;2023-07-30T01:59:52;16.40;99.90
62339;DHT22;48368;53.406;6.214;2023-07-30T02:02:18;16.40;99.90
62339;DHT22;48368;53.406;6.214;2023-07-30T02:04:44;16.40;99.90
62339;DHT22;48368;53.406;6.214;2023-07-30T02:07:09;16.40;99.90
62339;DHT22;48368;53.406;6.214;2023-07-30T02:09:35;16.40;99.90
62339;DHT22;48368;53.406;6.214;2023-07-30T02:12:01;16.40;99.90
62339;DHT22;48368;53.406;6.214;2023-07-30T02:14:26;16.50;99.90
62339;DHT22;48368;53.406;6.214;2023-07-30T02:16:52;16.50;99.90
62339;DHT22;48368;53.406;6.214;2023-07-30T02:19:18;16.50;99.90
62339;DHT22;48368;53.406;6.214;2023-07-30T02:21:44;16.50;99.90
62339;DHT22;48368;53.406;6.214;2023-07-30T02:24:09;16.50;99.90
62339;DHT22;48368;53.406;6.214;2023-07-30T02:26:40;16.50;99.90
62339;DHT22;48368;53.406;6.214;2023-07-30T02:29:06;16.50;99.90
62339;DHT22;48368;53.406;6.214;2023-07-30T02:31:31;16.60;99.90
62339;DHT22;48368;53.406;6.214;2023-07-30T02:33:57;16.50;99.90
62339;DHT22;48368;53.406;6.214;2023-07-30T02:36:24;16.60;99.90
62339;DHT22;48368;53.406;6.214;2023-07-30T02:38:49;16.60;99.90
62339;DHT22;48368;53.406;6.214;2023-07-30T02:41:16;16.60;99.90
62339;DHT22;48368;53.406;6.214;2023-07-30T02:43:42;16.50;99.90
62339;DHT22;48368;53.406;6.214;2023-07-30T02:46:07;16.50;99.90
62339;DHT22;48368;53.406;6.214;2023-07-30T02:48:33;16.60;99.90
62339;DHT22;48368;53.406;6.214;2023-07-30T02:50:59;16.60;99.90
62339;DHT22;48368;53.406;6.214;2023-07-30T02:53:24;16.50;99.90
62339;DHT22;48368;53.406;6.214;2023-07-30T02:55:50;16.50;99.90
62339;DHT22;48368;53.406;6.214;2023-07-30T02:58:19;16.50;99.90
62339;DHT22;48368;53.406;6.214;2023-07-30T03:00:44;16.50;99.90
62339;DHT22;48368;53.406;6.214;2023-07-30T03:03:10;16.50;99.90
62339;DHT22;48368;53.406;6.214;2023-07-30T03:05:35;16.60;99.90
62339;DHT22;48368;53.406;6.214;2023-07-30T03:08:01;16.60;99.90
62339;DHT22;48368;53.406;6.214;2023-07-30T03:10:27;16.60;99.90
62339;DHT22;48368;53.406;6.214;2023-07-30T03:12:52;16.50;99.90
62339;DHT22;48368;53.406;6.214;2023-07-30T03:15:18;16.50;99.90
62339;DHT22;48368;53.406;6.214;2023-07-30T03:17:44;16.60;99.90
62339;DHT22;48368;53.406;6.214;2023-07-30T03:20:09;16.50;99.90
62339;DHT22;48368;53.406;6.214;2023-07-30T03:22:35;16.50;99.90
62339;DHT22;48368;53.406;6.214;2023-07-30T03:25:01;16.50;99.90
62339;DHT22;48368;53.406;6.214;2023-07-30T03:27:26;16.60;99.90
62339;DHT22;48368;53.406;6.214;2023-07-30T03:29:52;16.50;99.90
62339;DHT22;48368;53.406;6.214;2023-07-30T03:32:17;16.50;99.90
62339;DHT22;48368;53.406;6.214;2023-07-30T03:34:43;16.40;99.90
62339;DHT22;48368;53.406;6.214;2023-07-30T03:37:09;16.50;99.90
62339;DHT22;48368;53.406;6.214;2023-07-30T03:39:35;16.50;99.90
62339;DHT22;48368;53.406;6.214;2023-07-30T03:42:00;16.40;99.90
62339;DHT22;48368;53.406;6.214;2023-07-30T03:44:35;16.40;99.90
62339;DHT22;48368;53.406;6.214;2023-07-30T03:47:01;16.40;99.90
62339;DHT22;48368;53.406;6.214;2023-07-30T03:49:27;16.40;99.90
62339;DHT22;48368;53.406;6.214;2023-07-30T03:51:52;16.40;99.90
62339;DHT22;48368;53.406;6.214;2023-07-30T03:54:18;16.40;99.90
62339;DHT22;48368;53.406;6.214;2023-07-30T03:56:43;16.40;99.90
62339;DHT22;48368;53.406;6.214;2023-07-30T03:59:09;16.30;99.90
62339;DHT22;48368;53.406;6.214;2023-07-30T04:01:35;16.40;99.90
62339;DHT22;48368;53.406;6.214;2023-07-30T04:04:00;16.40;99.90
62339;DHT22;48368;53.406;6.214;2023-07-30T04:06:29;16.20;99.90
62339;DHT22;48368;53.406;6.214;2023-07-30T04:08:54;16.30;99.90
62339;DHT22;48368;53.406;6.214;2023-07-30T04:11:20;16.30;99.90
62339;DHT22;48368;53.406;6.214;2023-07-30T04:13:50;16.30;99.90
62339;DHT22;48368;53.406;6.214;2023-07-30T04:16:16;16.20;99.90
62339;DHT22;48368;53.406;6.214;2023-07-30T04:18:41;16.30;99.90
62339;DHT22;48368;53.406;6.214;2023-07-30T04:21:07;16.30;99.90
62339;DHT22;48368;53.406;6.214;2023-07-30T04:23:32;16.30;99.90
62339;DHT22;48368;53.406;6.214;2023-07-30T04:25:58;16.20;99.90
62339;DHT22;48368;53.406;6.214;2023-07-30T04:28:24;16.20;99.90
62339;DHT22;48368;53.406;6.214;2023-07-30T04:30:52;16.30;99.90
62339;DHT22;48368;53.406;6.214;2023-07-30T04:33:21;16.30;99.90
62339;DHT22;48368;53.406;6.214;2023-07-30T04:35:47;16.30;99.90
62339;DHT22;48368;53.406;6.214;2023-07-30T04:38:13;16.30;99.90
62339;DHT22;48368;53.406;6.214;2023-07-30T04:40:41;16.30;99.90
62339;DHT22;48368;53.406;6.214;2023-07-30T04:43:06;16.30;99.90
62339;DHT22;48368;53.406;6.214;2023-07-30T04:45:33;16.40;99.90
62339;DHT22;48368;53.406;6.214;2023-07-30T04:47:59;16.50;99.90
62339;DHT22;48368;53.406;6.214;2023-07-30T04:50:24;16.50;99.90
62339;DHT22;48368;53.406;6.214;2023-07-30T04:52:51;16.50;99.90
62339;DHT22;48368;53.406;6.214;2023-07-30T04:55:16;16.50;99.90
62339;DHT22;48368;53.406;6.214;2023-07-30T04:57:42;16.50;99.90
62339;DHT22;48368;53.406;6.214;2023-07-30T05:00:08;16.50;99.90
62339;DHT22;48368;53.406;6.214;2023-07-30T05:02:34;16.60;99.90
62339;DHT22;48368;53.406;6.214;2023-07-30T05:04:59;16.60;99.90
62339;DHT22;48368;53.406;6.214;2023-07-30T05:07:25;16.50;99.90
62339;DHT22;48368;53.406;6.214;2023-07-30T05:09:50;16.60;99.90
62339;DHT22;48368;53.406;6.214;2023-07-30T05:12:16;16.60;99.90
62339;DHT22;48368;53.406;6.214;2023-07-30T05:14:43;16.60;99.90
62339;DHT22;48368;53.406;6.214;2023-07-30T05:17:08;16.70;99.90
62339;DHT22;48368;53.406;6.214;2023-07-30T05:19:34;16.70;99.90
62339;DHT22;48368;53.406;6.214;2023-07-30T05:21:59;16.80;99.90
62339;DHT22;48368;53.406;6.214;2023-07-30T05:24:27;16.80;99.90
62339;DHT22;48368;53.406;6.214;2023-07-30T05:26:52;16.80;99.90
62339;DHT22;48368;53.406;6.214;2023-07-30T05:29:18;16.70;99.90
62339;DHT22;48368;53.406;6.214;2023-07-30T05:31:44;16.80;99.90
62339;DHT22;48368;53.406;6.214;2023-07-30T05:34:09;16.80;99.90
62339;DHT22;48368;53.406;6.214;2023-07-30T05:36:35;16.90;99.90
62339;DHT22;48368;53.406;6.214;2023-07-30T05:39:01;16.90;99.90
62339;DHT22;48368;53.406;6.214;2023-07-30T05:41:26;16.90;99.90
62339;DHT22;48368;53.406;6.214;2023-07-30T05:43:52;16.90;99.90
62339;DHT22;48368;53.406;6.214;2023-07-30T05:46:17;16.80;99.90
62339;DHT22;48368;53.406;6.214;2023-07-30T05:48:43;16.90;99.90
62339;DHT22;48368;53.406;6.214;2023-07-30T05:51:08;16.90;99.90
62339;DHT22;48368;53.406;6.214;2023-07-30T05:53:34;16.90;99.90
62339;DHT22;48368;53.406;6.214;2023-07-30T05:56:00;16.80;99.90
62339;DHT22;48368;53.406;6.214;2023-07-30T05:58:25;16.90;99.90
62339;DHT22;48368;53.406;6.214;2023-07-30T06:00:56;16.90;99.90
62339;DHT22;48368;53.406;6.214;2023-07-30T06:03:22;16.90;99.90
62339;DHT22;48368;53.406;6.214;2023-07-30T06:05:50;16.90;99.90
62339;DHT22;48368;53.406;6.214;2023-07-30T06:08:16;16.90;99.90
62339;DHT22;48368;53.406;6.214;2023-07-30T06:10:42;16.90;99.90
62339;DHT22;48368;53.406;6.214;2023-07-30T06:13:08;16.90;99.90
62339;DHT22;48368;53.406;6.214;2023-07-30T06:15:33;16.90;99.90
62339;DHT22;48368;53.406;6.214;2023-07-30T06:18:01;16.90;99.90
62339;DHT22;48368;53.406;6.214;2023-07-30T06:20:28;16.90;99.90
62339;DHT22;48368;53.406;6.214;2023-07-30T06:22:53;16.90;99.90
62339;DHT22;48368;53.406;6.214;2023-07-30T06:25:19;16.90;99.90
62339;DHT22;48368;53.406;6.214;2023-07-30T06:27:44;17.00;99.90
62339;DHT22;48368;53.406;6.214;2023-07-30T06:30:10;17.00;99.90
62339;DHT22;48368;53.406;6.214;2023-07-30T06:32:36;17.00;99.90
62339;DHT22;48368;53.406;6.214;2023-07-30T06:35:02;17.00;99.90
62339;DHT22;48368;53.406;6.214;2023-07-30T06:37:28;17.00;99.90
62339;DHT22;48368;53.406;6.214;2023-07-30T06:39:54;17.00;99.90
62339;DHT22;48368;53.406;6.214;2023-07-30T06:42:20;17.00;99.90
62339;DHT22;48368;53.406;6.214;2023-07-30T06:44:45;17.00;99.90
62339;DHT22;48368;53.406;6.214;2023-07-30T06:47:11;17.10;99.90
62339;DHT22;48368;53.406;6.214;2023-07-30T06:49:36;17.20;99.90
62339;DHT22;48368;53.406;6.214;2023-07-30T06:52:02;17.20;99.90
62339;DHT22;48368;53.406;6.214;2023-07-30T06:54:29;17.30;99.90
62339;DHT22;48368;53.406;6.214;2023-07-30T06:56:58;17.30;99.90
62339;DHT22;48368;53.406;6.214;2023-07-30T06:59:23;17.40;99.90
62339;DHT22;48368;53.406;6.214;2023-07-30T07:01:49;17.60;99.90
62339;DHT22;48368;53.406;6.214;2023-07-30T07:04:17;17.70;99.90
62339;DHT22;48368;53.406;6.214;2023-07-30T07:06:44;17.90;99.90
62339;DHT22;48368;53.406;6.214;2023-07-30T07:09:09;18.10;99.90
62339;DHT22;48368;53.406;6.214;2023-07-30T07:11:35;18.20;99.90
62339;DHT22;48368;53.406;6.214;2023-07-30T07:14:03;18.30;99.90
62339;DHT22;48368;53.406;6.214;2023-07-30T07:16:28;18.30;99.90
62339;DHT22;48368;53.406;6.214;2023-07-30T07:18:54;18.40;99.90
62339;DHT22;48368;53.406;6.214;2023-07-30T07:21:20;18.20;99.90
62339;DHT22;48368;53.406;6.214;2023-07-30T07:23:48;18.20;99.90
62339;DHT22;48368;53.406;6.214;2023-07-30T07:26:17;18.20;99.90
62339;DHT22;48368;53.406;6.214;2023-07-30T07:28:42;18.20;99.90
62339;DHT22;48368;53.406;6.214;2023-07-30T07:31:08;18.10;99.90
62339;DHT22;48368;53.406;6.214;2023-07-30T07:33:34;17.90;99.90
62339;DHT22;48368;53.406;6.214;2023-07-30T07:36:06;17.90;99.90
62339;DHT22;48368;53.406;6.214;2023-07-30T07:38:32;17.80;99.90
62339;DHT22;48368;53.406;6.214;2023-07-30T07:40:58;17.60;99.90
62339;DHT22;48368;53.406;6.214;2023-07-30T07:43:24;17.50;99.90
62339;DHT22;48368;53.406;6.214;2023-07-30T07:45:50;17.40;99.90
62339;DHT22;48368;53.406;6.214;2023-07-30T07:48:15;17.40;99.90
62339;DHT22;48368;53.406;6.214;2023-07-30T07:50:41;17.40;99.90
62339;DHT22;48368;53.406;6.214;2023-07-30T07:53:07;17.50;99.90
62339;DHT22;48368;53.406;6.214;2023-07-30T07:55:32;17.60;99.90
62339;DHT22;48368;53.406;6.214;2023-07-30T07:58:04;17.70;99.90
62339;DHT22;48368;53.406;6.214;2023-07-30T08:00:30;17.80;99.90
62339;DHT22;48368;53.406;6.214;2023-07-30T08:02:55;17.70;99.90
62339;DHT22;48368;53.406;6.214;2023-07-30T08:05:21;17.70;99.90
62339;DHT22;48368;53.406;6.214;2023-07-30T08:07:47;17.70;99.90
62339;DHT22;48368;53.406;6.214;2023-07-30T08:10:13;17.80;99.90
62339;DHT22;48368;53.406;6.214;2023-07-30T08:12:38;17.70;99.90
62339;DHT22;48368;53.406;6.214;2023-07-30T08:15:04;17.80;99.90
62339;DHT22;48368;53.406;6.214;2023-07-30T08:17:30;17.70;99.90
62339;DHT22;48368;53.406;6.214;2023-07-30T08:19:56;17.70;99.90
62339;DHT22;48368;53.406;6.214;2023-07-30T08:22:21;17.70;99.90
62339;DHT22;48368;53.406;6.214;2023-07-30T08:24:47;17.70;99.90
62339;DHT22;48368;53.406;6.214;2023-07-30T08:27:13;17.70;99.90
62339;DHT22;48368;53.406;6.214;2023-07-30T08:29:38;17.80;99.90
62339;DHT22;48368;53.406;6.214;2023-07-30T08:32:04;17.80;99.90
62339;DHT22;48368;53.406;6.214;2023-07-30T08:34:30;17.80;99.90
62339;DHT22;48368;53.406;6.214;2023-07-30T08:36:56;17.90;99.90
62339;DHT22;48368;53.406;6.214;2023-07-30T08:39:21;17.80;99.90
62339;DHT22;48368;53.406;6.214;2023-07-30T08:41:47;17.80;99.90
62339;DHT22;48368;53.406;6.214;2023-07-30T08:44:16;17.90;99.90
62339;DHT22;48368;53.406;6.214;2023-07-30T08:46:42;17.90;99.90
62339;DHT22;48368;53.406;6.214;2023-07-30T08:49:07;17.90;99.90
62339;DHT22;48368;53.406;6.214;2023-07-30T08:51:34;17.90;99.90
62339;DHT22;48368;53.406;6.214;2023-07-30T08:54:02;18.00;99.90
62339;DHT22;48368;53.406;6.214;2023-07-30T08:56:28;18.00;99.90
62339;DHT22;48368;53.406;6.214;2023-07-30T08:58:56;18.00;99.90
62339;DHT22;48368;53.406;6.214;2023-07-30T09:01:30;18.10;99.90
62339;DHT22;48368;53.406;6.214;2023-07-30T09:03:59;18.00;99.90
62339;DHT22;48368;53.406;6.214;2023-07-30T09:06:26;18.10;99.90
62339;DHT22;48368;53.406;6.214;2023-07-30T09:08:52;18.10;99.90
62339;DHT22;48368;53.406;6.214;2023-07-30T09:11:18;18.00;99.90
62339;DHT22;48368;53.406;6.214;2023-07-30T09:13:45;18.10;99.90
62339;DHT22;48368;53.406;6.214;2023-07-30T09:16:12;18.10;99.90
62339;DHT22;48368;53.406;6.214;2023-07-30T09:18:40;18.10;99.90
62339;DHT22;48368;53.406;6.214;2023-07-30T09:21:06;18.10;99.90
62339;DHT22;48368;53.406;6.214;2023-07-30T09:23:31;18.20;99.90
62339;DHT22;48368;53.406;6.214;2023-07-30T09:25:58;18.20;99.90
62339;DHT22;48368;53.406;6.214;2023-07-30T09:28:31;18.30;99.90
62339;DHT22;48368;53.406;6.214;2023-07-30T09:31:04;18.20;99.90
62339;DHT22;48368;53.406;6.214;2023-07-30T09:33:31;18.20;99.90
62339;DHT22;48368;53.406;6.214;2023-07-30T09:35:58;18.30;99.90
62339;DHT22;48368;53.406;6.214;2023-07-30T09:38:23;18.40;99.90
62339;DHT22;48368;53.406;6.214;2023-07-30T09:41:00;18.40;99.90
62339;DHT22;48368;53.406;6.214;2023-07-30T09:43:29;18.50;99.90
62339;DHT22;48368;53.406;6.214;2023-07-30T09:46:06;18.50;99.90
62339;DHT22;48368;53.406;6.214;2023-07-30T09:48:32;18.40;99.90
62339;DHT22;48368;53.406;6.214;2023-07-30T09:51:03;18.50;99.90
62339;DHT22;48368;53.406;6.214;2023-07-30T09:53:33;18.60;99.90
62339;DHT22;48368;53.406;6.214;2023-07-30T09:56:01;18.60;99.90
62339;DHT22;48368;53.406;6.214;2023-07-30T09:58:28;18.50;99.90
62339;DHT22;48368;53.406;6.214;2023-07-30T10:00:55;18.70;99.90
62339;DHT22;48368;53.406;6.214;2023-07-30T10:03:23;18.90;99.90
62339;DHT22;48368;53.406;6.214;2023-07-30T10:05:49;19.40;99.90
62339;DHT22;48368;53.406;6.214;2023-07-30T10:08:20;19.40;99.90
62339;DHT22;48368;53.406;6.214;2023-07-30T10:10:50;19.40;99.90
62339;DHT22;48368;53.406;6.214;2023-07-30T10:13:18;19.30;99.90
62339;DHT22;48368;53.406;6.214;2023-07-30T10:15:46;19.20;99.90
62339;DHT22;48368;53.406;6.214;2023-07-30T10:18:13;19.20;99.90
62339;DHT22;48368;53.406;6.214;2023-07-30T10:20:39;19.00;99.90
62339;DHT22;48368;53.406;6.214;2023-07-30T10:23:05;19.00;99.90
62339;DHT22;48368;53.406;6.214;2023-07-30T10:25:46;19.10;99.90
62339;DHT22;48368;53.406;6.214;2023-07-30T10:28:35;19.30;99.90
62339;DHT22;48368;53.406;6.214;2023-07-30T10:31:05;19.20;99.90
62339;DHT22;48368;53.406;6.214;2023-07-30T10:36:10;19.10;99.90
62339;DHT22;48368;53.406;6.214;2023-07-30T10:38:36;19.20;99.90
62339;DHT22;48368;53.406;6.214;2023-07-30T10:41:10;19.20;99.90
62339;DHT22;48368;53.406;6.214;2023-07-30T10:44:02;19.40;99.90
62339;DHT22;48368;53.406;6.214;2023-07-30T10:46:28;19.60;99.90
62339;DHT22;48368;53.406;6.214;2023-07-30T10:48:54;19.70;99.90
62339;DHT22;48368;53.406;6.214;2023-07-30T10:51:20;19.70;99.90
62339;DHT22;48368;53.406;6.214;2023-07-30T10:53:48;19.80;99.90
62339;DHT22;48368;53.406;6.214;2023-07-30T10:56:25;20.00;99.90
62339;DHT22;48368;53.406;6.214;2023-07-30T10:58:52;20.10;99.90
62339;DHT22;48368;53.406;6.214;2023-07-30T11:01:18;20.10;99.90
62339;DHT22;48368;53.406;6.214;2023-07-30T11:03:48;20.30;99.90
62339;DHT22;48368;53.406;6.214;2023-07-30T11:06:23;20.50;99.90
62339;DHT22;48368;53.406;6.214;2023-07-30T11:08:49;20.60;99.90
62339;DHT22;48368;53.406;6.214;2023-07-30T11:11:15;20.90;99.90
62339;DHT22;48368;53.406;6.214;2023-07-30T11:13:44;21.10;99.90
62339;DHT22;48368;53.406;6.214;2023-07-30T11:16:13;21.20;99.90
62339;DHT22;48368;53.406;6.214;2023-07-30T11:18:40;21.30;99.90
62339;DHT22;48368;53.406;6.214;2023-07-30T11:21:14;21.20;99.90
62339;DHT22;48368;53.406;6.214;2023-07-30T11:23:41;21.00;99.90
62339;DHT22;48368;53.406;6.214;2023-07-30T11:26:08;20.70;99.90
62339;DHT22;48368;53.406;6.214;2023-07-30T11:28:36;20.60;99.90
62339;DHT22;48368;53.406;6.214;2023-07-30T11:31:06;20.70;99.90
62339;DHT22;48368;53.406;6.214;2023-07-30T11:33:32;20.80;99.90
62339;DHT22;48368;53.406;6.214;2023-07-30T11:36:00;20.80;99.90
62339;DHT22;48368;53.406;6.214;2023-07-30T11:38:27;21.00;99.90
62339;DHT22;48368;53.406;6.214;2023-07-30T11:40:53;21.20;99.90
62339;DHT22;48368;53.406;6.214;2023-07-30T11:43:23;21.20;99.90
62339;DHT22;48368;53.406;6.214;2023-07-30T11:46:02;21.00;99.90
62339;DHT22;48368;53.406;6.214;2023-07-30T11:48:31;20.90;99.90
62339;DHT22;48368;53.406;6.214;2023-07-30T11:50:56;21.20;99.90
62339;DHT22;48368;53.406;6.214;2023-07-30T11:53:22;21.40;99.90
62339;DHT22;48368;53.406;6.214;2023-07-30T11:56:19;21.30;99.90
62339;DHT22;48368;53.406;6.214;2023-07-30T11:58:45;21.40;99.90
62339;DHT22;48368;53.406;6.214;2023-07-30T12:04:00;20.90;99.90
62339;DHT22;48368;53.406;6.214;2023-07-30T12:06:49;20.60;99.90
62339;DHT22;48368;53.406;6.214;2023-07-30T12:09:35;20.90;99.90
62339;DHT22;48368;53.406;6.214;2023-07-30T12:12:02;21.20;99.90
62339;DHT22;48368;53.406;6.214;2023-07-30T12:14:29;21.30;99.90
62339;DHT22;48368;53.406;6.214;2023-07-30T12:16:59;21.20;99.90
62339;DHT22;48368;53.406;6.214;2023-07-30T12:19:25;20.90;99.90
62339;DHT22;48368;53.406;6.214;2023-07-30T12:21:51;20.80;99.90
62339;DHT22;48368;53.406;6.214;2023-07-30T12:24:17;21.00;99.90
62339;DHT22;48368;53.406;6.214;2023-07-30T12:26:42;20.90;99.90
62339;DHT22;48368;53.406;6.214;2023-07-30T12:29:08;21.00;99.90
62339;DHT22;48368;53.406;6.214;2023-07-30T12:31:34;21.10;99.90
62339;DHT22;48368;53.406;6.214;2023-07-30T12:33:59;21.10;99.90
62339;DHT22;48368;53.406;6.214;2023-07-30T12:36:25;21.20;99.90
62339;DHT22;48368;53.406;6.214;2023-07-30T12:38:52;21.10;99.90
62339;DHT22;48368;53.406;6.214;2023-07-30T12:41:19;21.00;99.90
62339;DHT22;48368;53.406;6.214;2023-07-30T12:43:54;20.90;99.90
62339;DHT22;48368;53.406;6.214;2023-07-30T12:46:22;21.00;99.90
62339;DHT22;48368;53.406;6.214;2023-07-30T12:48:48;21.20;99.90
62339;DHT22;48368;53.406;6.214;2023-07-30T12:51:14;21.30;99.90
62339;DHT22;48368;53.406;6.214;2023-07-30T12:53:40;21.30;99.90
62339;DHT22;48368;53.406;6.214;2023-07-30T12:56:08;21.50;99.90
62339;DHT22;48368;53.406;6.214;2023-07-30T12:58:37;21.60;99.90
62339;DHT22;48368;53.406;6.214;2023-07-30T13:01:04;21.70;99.90
62339;DHT22;48368;53.406;6.214;2023-07-30T13:03:30;21.70;99.90
62339;DHT22;48368;53.406;6.214;2023-07-30T13:05:55;21.80;99.90
62339;DHT22;48368;53.406;6.214;2023-07-30T13:08:21;22.00;99.90
62339;DHT22;48368;53.406;6.214;2023-07-30T13:10:47;22.00;99.90
62339;DHT22;48368;53.406;6.214;2023-07-30T13:13:12;21.80;99.90
62339;DHT22;48368;53.406;6.214;2023-07-30T13:15:38;21.50;99.90
62339;DHT22;48368;53.406;6.214;2023-07-30T13:18:03;21.20;99.90
62339;DHT22;48368;53.406;6.214;2023-07-30T13:20:29;21.00;99.90
62339;DHT22;48368;53.406;6.214;2023-07-30T13:22:59;20.90;99.90
62339;DHT22;48368;53.406;6.214;2023-07-30T13:25:25;20.50;99.90
62339;DHT22;48368;53.406;6.214;2023-07-30T13:27:50;20.40;99.90
62339;DHT22;48368;53.406;6.214;2023-07-30T13:30:16;20.40;99.90
62339;DHT22;48368;53.406;6.214;2023-07-30T13:32:42;20.40;99.90
62339;DHT22;48368;53.406;6.214;2023-07-30T13:35:07;20.20;99.90
62339;DHT22;48368;53.406;6.214;2023-07-30T13:37:33;20.10;99.90
62339;DHT22;48368;53.406;6.214;2023-07-30T13:40:02;19.80;99.90
62339;DHT22;48368;53.406;6.214;2023-07-30T13:42:27;19.40;99.90
62339;DHT22;48368;53.406;6.214;2023-07-30T13:44:53;19.10;99.90
62339;DHT22;48368;53.406;6.214;2023-07-30T13:47:21;18.80;99.90
62339;DHT22;48368;53.406;6.214;2023-07-30T13:49:46;18.80;99.90
62339;DHT22;48368;53.406;6.214;2023-07-30T13:52:13;18.70;99.90
62339;DHT22;48368;53.406;6.214;2023-07-30T13:54:39;18.50;99.90
62339;DHT22;48368;53.406;6.214;2023-07-30T13:57:05;18.30;99.90
62339;DHT22;48368;53.406;6.214;2023-07-30T13:59:31;18.10;99.90
62339;DHT22;48368;53.406;6.214;2023-07-30T14:01:56;17.90;99.90
62339;DHT22;48368;53.406;6.214;2023-07-30T14:04:23;17.90;99.90
62339;DHT22;48368;53.406;6.214;2023-07-30T14:06:48;17.90;99.90
62339;DHT22;48368;53.406;6.214;2023-07-30T14:09:14;18.00;99.90
62339;DHT22;48368;53.406;6.214;2023-07-30T14:11:40;18.30;99.90
62339;DHT22;48368;53.406;6.214;2023-07-30T14:14:10;18.60;99.90
62339;DHT22;48368;53.406;6.214;2023-07-30T14:16:36;18.80;99.90
62339;DHT22;48368;53.406;6.214;2023-07-30T14:19:01;18.70;99.90
62339;DHT22;48368;53.406;6.214;2023-07-30T14:21:27;18.80;99.90
62339;DHT22;48368;53.406;6.214;2023-07-30T14:23:53;18.90;99.90
62339;DHT22;48368;53.406;6.214;2023-07-30T14:26:19;18.90;99.90
62339;DHT22;48368;53.406;6.214;2023-07-30T14:28:44;18.90;99.90
62339;DHT22;48368;53.406;6.214;2023-07-30T14:31:10;18.80;99.90
62339;DHT22;48368;53.406;6.214;2023-07-30T14:33:39;18.80;99.90
62339;DHT22;48368;53.406;6.214;2023-07-30T14:36:05;18.90;99.90
62339;DHT22;48368;53.406;6.214;2023-07-30T14:38:30;18.80;99.90
62339;DHT22;48368;53.406;6.214;2023-07-30T14:40:59;18.80;99.90
62339;DHT22;48368;53.406;6.214;2023-07-30T14:43:25;18.80;99.90
62339;DHT22;48368;53.406;6.214;2023-07-30T14:45:53;18.90;99.90
62339;DHT22;48368;53.406;6.214;2023-07-30T14:48:19;18.90;99.90
62339;DHT22;48368;53.406;6.214;2023-07-30T14:50:45;18.90;99.90
62339;DHT22;48368;53.406;6.214;2023-07-30T14:53:10;19.00;99.90
62339;DHT22;48368;53.406;6.214;2023-07-30T14:55:36;19.10;99.90
62339;DHT22;48368;53.406;6.214;2023-07-30T14:58:02;19.20;99.90
62339;DHT22;48368;53.406;6.214;2023-07-30T15:00:29;19.40;99.90
62339;DHT22;48368;53.406;6.214;2023-07-30T15:02:54;19.40;99.90
62339;DHT22;48368;53.406;6.214;2023-07-30T15:05:21;19.40;99.90
62339;DHT22;48368;53.406;6.214;2023-07-30T15:07:47;19.40;99.90
62339;DHT22;48368;53.406;6.214;2023-07-30T15:10:13;19.40;99.90
62339;DHT22;48368;53.406;6.214;2023-07-30T15:12:39;19.40;99.90
62339;DHT22;48368;53.406;6.214;2023-07-30T15:15:06;19.30;99.90
62339;DHT22;48368;53.406;6.214;2023-07-30T15:17:31;18.80;99.90
62339;DHT22;48368;53.406;6.214;2023-07-30T15:19:57;18.70;99.90
62339;DHT22;48368;53.406;6.214;2023-07-30T15:22:25;18.60;99.90
62339;DHT22;48368;53.406;6.214;2023-07-30T15:24:50;18.50;99.90
62339;DHT22;48368;53.406;6.214;2023-07-30T15:27:16;18.50;99.90
62339;DHT22;48368;53.406;6.214;2023-07-30T15:29:43;18.30;99.90
62339;DHT22;48368;53.406;6.214;2023-07-30T15:32:18;18.40;99.90
62339;DHT22;48368;53.406;6.214;2023-07-30T15:34:44;18.50;99.90